createdAt,value
2022-08-09T00:01:25.831Z,12.30
2022-08-09T00:04:00.542Z,12.30
2022-08-09T00:06:23.068Z,12.10
2022-08-09T00:08:33.112Z,12.10
2022-08-09T00:10:42.642Z,12.10
2022-08-09T00:12:53.131Z,12.10
2022-08-09T00:15:06.318Z,12.00
2022-08-09T00:18:07.491Z,12.00
2022-08-09T00:19:48.035Z,12.00
2022-08-09T00:21:57.105Z,11.90
2022-08-09T00:24:06.532Z,12.00
2022-08-09T00:26:18.669Z,11.90
2022-08-09T00:28:28.332Z,11.80
2022-08-09T00:30:37.051Z,11.70
2022-08-09T00:32:45.280Z,11.70
2022-08-09T00:34:55.015Z,11.70
2022-08-09T00:37:03.250Z,11.70
2022-08-09T00:40:09.099Z,11.60
2022-08-09T00:44:15.930Z,11.60
2022-08-09T00:44:20.189Z,11.60
2022-08-09T00:46:56.264Z,11.60
2022-08-09T00:49:04.000Z,11.60
2022-08-09T00:51:13.070Z,11.50
2022-08-09T00:53:24.207Z,11.50
2022-08-09T00:56:05.583Z,11.50
2022-08-09T00:58:01.183Z,11.50
2022-08-09T01:00:21.825Z,11.40
2022-08-09T01:02:32.527Z,11.40
2022-08-09T01:04:50.267Z,11.30
2022-08-09T01:07:05.564Z,11.30
2022-08-09T01:09:24.100Z,11.30
2022-08-09T01:11:55.639Z,11.40
2022-08-09T01:14:08.271Z,11.40
2022-08-09T01:16:25.473Z,11.40
2022-08-09T01:18:37.740Z,11.30
2022-08-09T01:20:51.286Z,11.20
2022-08-09T01:24:02.008Z,11.20
2022-08-09T01:26:10.876Z,11.20
2022-08-09T01:28:26.162Z,11.10
2022-08-09T01:30:51.861Z,11.10
2022-08-09T01:33:02.641Z,11.10
2022-08-09T01:35:28.382Z,11.00
2022-08-09T01:37:43.202Z,11.00
2022-08-09T01:40:11.088Z,11.10
2022-08-09T01:42:35.077Z,11.00
2022-08-09T01:44:46.262Z,11.00
2022-08-09T01:46:55.604Z,11.00
2022-08-09T01:49:10.285Z,11.00
2022-08-09T01:51:22.990Z,10.90
2022-08-09T01:53:41.049Z,10.90
2022-08-09T01:55:53.013Z,10.90
2022-08-09T01:58:04.858Z,10.90
2022-08-09T02:00:34.439Z,10.90
2022-08-09T02:02:48.747Z,10.90
2022-08-09T02:05:04.041Z,10.90
2022-08-09T02:08:41.106Z,10.80
2022-08-09T02:09:59.275Z,10.80
2022-08-09T02:12:10.553Z,10.70
2022-08-09T02:14:26.515Z,10.60
2022-08-09T02:16:53.074Z,10.50
2022-08-09T02:19:08.056Z,10.50
2022-08-09T02:21:22.045Z,10.50
2022-08-09T02:23:42.716Z,10.50
2022-08-09T02:25:55.867Z,10.50
2022-08-09T02:28:11.509Z,10.50
2022-08-09T02:30:26.631Z,10.50
2022-08-09T02:32:42.629Z,10.50
2022-08-09T02:34:57.731Z,10.50
2022-08-09T02:37:12.175Z,10.60
2022-08-09T02:39:33.927Z,10.60
2022-08-09T02:41:54.773Z,10.50
2022-08-09T02:44:13.632Z,10.50
2022-08-09T02:46:39.712Z,10.50
2022-08-09T02:48:51.591Z,10.40
2022-08-09T02:51:02.682Z,10.40
2022-08-09T02:53:26.598Z,10.40
2022-08-09T02:55:46.306Z,10.40
2022-08-09T02:58:32.018Z,10.40
2022-08-09T03:00:27.256Z,10.40
2022-08-09T03:02:46.271Z,10.40
2022-08-09T03:05:16.655Z,10.40
2022-08-09T03:07:26.143Z,10.40
2022-08-09T03:09:35.589Z,10.30
2022-08-09T03:12:06.113Z,10.20
2022-08-09T03:14:26.559Z,10.20
2022-08-09T03:16:41.690Z,10.20
2022-08-09T03:18:55.704Z,10.20
2022-08-09T03:21:07.835Z,10.20
2022-08-09T03:23:24.409Z,10.20
2022-08-09T03:25:58.221Z,10.30
2022-08-09T03:28:03.808Z,10.40
2022-08-09T03:30:13.701Z,10.50
2022-08-09T03:32:23.394Z,10.50
2022-08-09T03:34:34.376Z,10.50
2022-08-09T03:36:48.067Z,10.40
2022-08-09T03:39:08.012Z,10.40
2022-08-09T03:41:18.553Z,10.40
2022-08-09T03:43:32.014Z,10.50
2022-08-09T03:46:13.747Z,10.50
2022-08-09T03:48:09.493Z,10.50
2022-08-09T03:50:27.848Z,10.50
2022-08-09T03:52:43.622Z,10.50
2022-08-09T03:54:55.592Z,10.40
2022-08-09T03:57:18.681Z,10.50
2022-08-09T03:59:53.649Z,10.50
2022-08-09T04:01:59.473Z,10.60
2022-08-09T04:04:14.536Z,10.70
2022-08-09T04:06:23.551Z,10.80
2022-08-09T04:08:33.943Z,10.80
2022-08-09T04:10:42.305Z,10.80
2022-08-09T04:13:01.023Z,11.00
2022-08-09T04:15:29.572Z,11.10
2022-08-09T04:17:42.364Z,11.00
2022-08-09T04:19:56.247Z,10.90
2022-08-09T04:22:04.796Z,10.90
2022-08-09T04:24:21.570Z,10.80
2022-08-09T04:26:38.113Z,10.90
2022-08-09T04:28:46.922Z,11.00
2022-08-09T04:30:55.395Z,11.10
2022-08-09T04:33:03.792Z,11.20
2022-08-09T04:35:14.356Z,11.40
2022-08-09T04:37:23.852Z,11.50
2022-08-09T04:39:55.800Z,11.50
2022-08-09T04:42:04.307Z,11.50
2022-08-09T04:44:17.487Z,11.60
2022-08-09T04:46:57.262Z,11.70
2022-08-09T04:48:57.605Z,12.00
2022-08-09T04:51:06.799Z,12.20
2022-08-09T04:53:15.430Z,12.30
2022-08-09T04:55:25.594Z,12.30
2022-08-09T04:57:59.359Z,12.20
2022-08-09T05:00:05.090Z,12.20
2022-08-09T05:02:14.191Z,12.30
2022-08-09T05:04:22.878Z,12.40
2022-08-09T05:06:39.255Z,12.50
2022-08-09T05:08:52.545Z,12.60
2022-08-09T05:11:10.370Z,12.70
2022-08-09T05:13:19.473Z,12.80
2022-08-09T05:15:39.443Z,12.90
2022-08-09T05:18:39.658Z,13.00
2022-08-09T05:20:29.821Z,13.20
2022-08-09T05:23:54.028Z,13.40
2022-08-09T05:25:08.328Z,13.60
2022-08-09T05:27:19.227Z,13.70
2022-08-09T05:29:31.570Z,13.80
2022-08-09T05:31:46.790Z,14.00
2022-08-09T05:33:59.337Z,14.20
2022-08-09T05:36:07.905Z,14.30
2022-08-09T05:38:21.817Z,14.40
2022-08-09T05:40:30.949Z,14.50
2022-08-09T05:42:41.226Z,14.60
2022-08-09T05:44:51.345Z,14.60
2022-08-09T05:47:00.110Z,14.70
2022-08-09T05:49:33.806Z,14.80
2022-08-09T05:51:46.160Z,14.90
2022-08-09T05:53:57.395Z,15.00
2022-08-09T05:56:07.445Z,15.10
2022-08-09T05:58:19.589Z,15.30
2022-08-09T06:00:29.544Z,15.40
2022-08-09T06:02:38.312Z,15.50
2022-08-09T06:04:55.790Z,15.50
2022-08-09T06:07:04.988Z,15.60
2022-08-09T06:09:41.084Z,15.70
2022-08-09T06:11:57.832Z,15.80
2022-08-09T06:14:08.236Z,16.00
2022-08-09T06:16:16.586Z,16.10
2022-08-09T06:18:25.978Z,16.20
2022-08-09T06:20:34.744Z,16.20
2022-08-09T06:22:45.752Z,16.30
2022-08-09T06:24:54.272Z,16.40
2022-08-09T06:27:03.032Z,16.50
2022-08-09T06:29:14.916Z,16.60
2022-08-09T06:31:30.552Z,16.70
2022-08-09T06:33:42.078Z,16.80
2022-08-09T06:35:58.417Z,16.80
2022-08-09T06:38:07.505Z,16.90
2022-08-09T06:40:21.672Z,17.10
2022-08-09T06:42:33.652Z,17.20
2022-08-09T06:44:43.671Z,17.30
2022-08-09T06:46:55.300Z,17.30
2022-08-09T06:49:04.407Z,17.40
2022-08-09T06:51:14.857Z,17.40
2022-08-09T06:53:25.164Z,17.60
2022-08-09T06:55:34.297Z,17.60
2022-08-09T06:58:02.695Z,17.70
2022-08-09T07:00:49.455Z,17.80
2022-08-09T07:02:44.763Z,17.90
2022-08-09T07:04:55.283Z,18.00
2022-08-09T07:07:04.706Z,18.10
2022-08-09T07:09:53.591Z,18.10
2022-08-09T07:11:52.220Z,18.20
2022-08-09T07:14:04.830Z,18.30
2022-08-09T07:16:42.254Z,18.40
2022-08-09T07:18:47.324Z,18.40
2022-08-09T07:20:58.690Z,18.40
2022-08-09T07:23:19.531Z,18.50
2022-08-09T07:25:28.509Z,18.60
2022-08-09T07:27:42.891Z,18.70
2022-08-09T07:30:02.013Z,18.80
2022-08-09T07:32:11.965Z,18.90
2022-08-09T07:34:21.033Z,18.90
2022-08-09T07:36:32.392Z,18.90
2022-08-09T07:38:41.864Z,19.00
2022-08-09T07:41:00.860Z,19.00
2022-08-09T07:43:18.504Z,19.10
2022-08-09T07:45:38.148Z,19.10
2022-08-09T07:48:04.329Z,19.20
2022-08-09T07:50:13.293Z,19.30
2022-08-09T07:52:24.138Z,19.40
2022-08-09T07:54:32.606Z,19.50
2022-08-09T07:56:48.915Z,19.50
2022-08-09T07:58:59.555Z,19.60
2022-08-09T08:01:11.167Z,19.60
2022-08-09T08:03:21.583Z,19.70
2022-08-09T08:05:53.937Z,19.70
2022-08-09T08:08:59.894Z,19.70
2022-08-09T08:10:34.382Z,19.80
2022-08-09T08:12:45.651Z,19.80
2022-08-09T08:14:55.064Z,19.90
2022-08-09T08:17:08.095Z,20.10
2022-08-09T08:19:19.504Z,20.10
2022-08-09T08:21:30.466Z,20.10
2022-08-09T08:23:38.961Z,20.10
2022-08-09T08:25:54.327Z,20.30
2022-08-09T08:28:15.578Z,20.40
2022-08-09T08:30:26.972Z,20.50
2022-08-09T08:32:41.583Z,20.60
2022-08-09T08:35:04.043Z,20.60
2022-08-09T08:37:15.523Z,20.70
2022-08-09T08:39:24.724Z,20.70
2022-08-09T08:41:42.208Z,20.70
2022-08-09T08:44:03.542Z,20.80
2022-08-09T08:46:32.965Z,21.00
2022-08-09T08:48:51.634Z,21.10
2022-08-09T08:51:04.369Z,21.10
2022-08-09T08:53:21.614Z,21.20
2022-08-09T08:55:30.443Z,21.40
2022-08-09T08:57:40.829Z,21.60
2022-08-09T08:59:49.400Z,21.60
2022-08-09T09:02:03.317Z,21.60
2022-08-09T09:04:17.764Z,21.70
2022-08-09T09:06:38.805Z,21.80
2022-08-09T09:08:52.600Z,22.00
2022-08-09T09:11:05.466Z,22.00
2022-08-09T09:13:16.405Z,22.00
2022-08-09T09:15:28.851Z,21.90
2022-08-09T09:17:48.558Z,21.70
2022-08-09T09:20:03.470Z,21.60
2022-08-09T09:22:15.900Z,21.70
2022-08-09T09:24:29.494Z,21.80
2022-08-09T09:26:38.729Z,22.10
2022-08-09T09:29:03.876Z,22.30
2022-08-09T09:32:03.806Z,22.30
2022-08-09T09:33:56.897Z,22.40
2022-08-09T09:36:19.735Z,22.40
2022-08-09T09:38:44.256Z,22.50
2022-08-09T09:40:52.731Z,22.80
2022-08-09T09:43:01.050Z,22.90
2022-08-09T09:45:14.501Z,22.90
2022-08-09T09:47:47.595Z,23.00
2022-08-09T09:50:15.033Z,22.80
2022-08-09T09:52:52.553Z,23.10
2022-08-09T09:55:02.839Z,23.10
2022-08-09T09:58:01.173Z,23.40
2022-08-09T09:59:56.360Z,23.30
2022-08-09T10:02:06.639Z,23.50
2022-08-09T10:04:30.535Z,23.40
2022-08-09T10:06:42.747Z,23.40
2022-08-09T10:08:57.374Z,23.30
2022-08-09T10:11:59.173Z,23.40
2022-08-09T10:13:50.933Z,23.40
2022-08-09T10:16:55.801Z,23.60
2022-08-09T10:18:28.725Z,23.40
2022-08-09T10:20:45.040Z,23.40
2022-08-09T10:23:00.586Z,23.90
2022-08-09T10:25:14.464Z,24.00
2022-08-09T10:27:28.724Z,23.70
2022-08-09T10:30:43.697Z,23.80
2022-08-09T10:34:47.140Z,23.00
2022-08-09T10:36:57.218Z,23.10
2022-08-09T10:39:15.397Z,23.20
2022-08-09T10:41:24.551Z,23.40
2022-08-09T10:43:50.703Z,23.40
2022-08-09T10:46:25.424Z,23.10
2022-08-09T10:48:39.975Z,22.70
2022-08-09T10:51:09.522Z,22.50
2022-08-09T10:53:32.032Z,22.40
2022-08-09T10:55:55.198Z,22.30
2022-08-09T10:58:07.564Z,22.10
2022-08-09T11:00:41.807Z,22.00
2022-08-09T11:03:51.284Z,21.80
2022-08-09T11:06:23.680Z,21.80
2022-08-09T11:08:47.575Z,22.10
2022-08-09T11:11:00.983Z,22.70
2022-08-09T11:13:49.441Z,22.60
2022-08-09T11:15:50.779Z,22.50
2022-08-09T11:18:02.952Z,22.80
2022-08-09T11:20:22.435Z,23.00
2022-08-09T11:22:59.575Z,23.20
2022-08-09T11:25:10.590Z,23.20
2022-08-09T11:28:02.735Z,23.50
2022-08-09T11:30:04.997Z,23.70
2022-08-09T11:33:03.987Z,23.50
2022-08-09T11:35:18.902Z,23.20
2022-08-09T11:37:40.895Z,23.10
2022-08-09T11:40:06.278Z,23.30
2022-08-09T11:42:15.083Z,23.60
2022-08-09T11:44:44.777Z,23.60
2022-08-09T11:46:57.174Z,23.80
2022-08-09T11:49:07.512Z,23.70
2022-08-09T11:52:56.797Z,23.80
2022-08-09T11:54:28.965Z,24.10
2022-08-09T11:56:48.013Z,24.00
2022-08-09T11:58:59.136Z,24.30
2022-08-09T12:01:37.562Z,24.20
2022-08-09T12:03:56.925Z,24.30
2022-08-09T12:06:15.087Z,23.90
2022-08-09T12:08:25.881Z,23.70
2022-08-09T12:10:39.441Z,23.30
2022-08-09T12:12:49.361Z,23.40
2022-08-09T12:15:08.337Z,23.70
2022-08-09T12:17:27.878Z,23.80
2022-08-09T12:19:46.895Z,24.00
2022-08-09T12:22:04.934Z,23.50
2022-08-09T12:24:20.622Z,23.20
2022-08-09T12:26:40.268Z,23.20
2022-08-09T12:29:10.222Z,23.10
2022-08-09T12:31:58.070Z,22.80
2022-08-09T12:34:01.002Z,22.60
2022-08-09T12:36:27.667Z,22.50
2022-08-09T12:38:41.174Z,22.40
2022-08-09T12:40:52.059Z,22.80
2022-08-09T12:43:00.876Z,23.00
2022-08-09T12:45:34.266Z,23.00
2022-08-09T12:47:50.124Z,23.00
2022-08-09T12:50:16.640Z,23.10
2022-08-09T12:52:58.408Z,23.40
2022-08-09T12:56:11.746Z,23.80
2022-08-09T12:57:41.573Z,23.70
